sensor_id;sensor_type;location;lat;lon;timestamp;pressure;altitude;pressure_sealevel;temperature
72405;BMP280;60395;52.020;113.548;2023-03-23T00:02:28;93019.78;;;-6.50
72405;BMP280;60395;52.020;113.548;2023-03-23T00:05:30;93030.50;;;-6.42
72405;BMP280;60395;52.020;113.548;2023-03-23T00:08:37;93032.69;;;-6.48
72405;BMP280;60395;52.020;113.548;2023-03-23T00:11:39;93044.03;;;-6.40
72405;BMP280;60395;52.020;113.548;2023-03-23T00:14:40;93040.28;;;-6.27
72405;BMP280;60395;52.020;113.548;2023-03-23T00:17:42;93048.50;;;-6.17
72405;BMP280;60395;52.020;113.548;2023-03-23T00:20:52;93054.19;;;-6.18
72405;BMP280;60395;52.020;113.548;2023-03-23T00:23:54;93054.84;;;-6.06
72405;BMP280;60395;52.020;113.548;2023-03-23T00:26:56;93061.53;;;-6.01
72405;BMP280;60395;52.020;113.548;2023-03-23T00:29:59;93059.88;;;-5.97
72405;BMP280;60395;52.020;113.548;2023-03-23T00:33:01;93068.78;;;-5.86
72405;BMP280;60395;52.020;113.548;2023-03-23T00:36:11;93065.22;;;-5.69
72405;BMP280;60395;52.020;113.548;2023-03-23T00:39:13;93075.72;;;-5.51
72405;BMP280;60395;52.020;113.548;2023-03-23T00:42:17;93085.84;;;-5.30
72405;BMP280;60395;52.020;113.548;2023-03-23T00:45:19;93084.19;;;-5.00
72405;BMP280;60395;52.020;113.548;2023-03-23T00:48:24;93090.78;;;-5.09
72405;BMP280;60395;52.020;113.548;2023-03-23T00:51:26;93092.91;;;-5.05
72405;BMP280;60395;52.020;113.548;2023-03-23T00:54:28;93103.78;;;-4.93
72405;BMP280;60395;52.020;113.548;2023-03-23T00:57:30;93091.19;;;-4.89
72405;BMP280;60395;52.020;113.548;2023-03-23T01:00:32;93098.91;;;-4.64
72405;BMP280;60395;52.020;113.548;2023-03-23T01:03:35;93111.31;;;-4.84
72405;BMP280;60395;52.020;113.548;2023-03-23T01:06:40;93111.78;;;-4.62
72405;BMP280;60395;52.020;113.548;2023-03-23T01:09:44;93111.75;;;-4.50
72405;BMP280;60395;52.020;113.548;2023-03-23T01:12:46;93124.72;;;-4.60
72405;BMP280;60395;52.020;113.548;2023-03-23T01:15:49;93137.22;;;-4.40
72405;BMP280;60395;52.020;113.548;2023-03-23T01:18:51;93123.53;;;-4.20
72405;BMP280;60395;52.020;113.548;2023-03-23T01:21:53;93131.63;;;-4.12
72405;BMP280;60395;52.020;113.548;2023-03-23T01:24:55;93134.75;;;-4.13
72405;BMP280;60395;52.020;113.548;2023-03-23T01:27:58;93135.81;;;-4.05
72405;BMP280;60395;52.020;113.548;2023-03-23T01:31:05;93142.84;;;-4.05
72405;BMP280;60395;52.020;113.548;2023-03-23T01:34:08;93142.50;;;-4.25
72405;BMP280;60395;52.020;113.548;2023-03-23T01:37:13;93146.13;;;-4.16
72405;BMP280;60395;52.020;113.548;2023-03-23T01:40:15;93146.63;;;-4.06
72405;BMP280;60395;52.020;113.548;2023-03-23T01:43:17;93152.69;;;-4.13
72405;BMP280;60395;52.020;113.548;2023-03-23T01:46:19;93160.59;;;-4.09
72405;BMP280;60395;52.020;113.548;2023-03-23T01:49:31;93155.47;;;-4.09
72405;BMP280;60395;52.020;113.548;2023-03-23T01:52:33;93156.41;;;-4.03
72405;BMP280;60395;52.020;113.548;2023-03-23T01:55:41;93156.22;;;-4.07
72405;BMP280;60395;52.020;113.548;2023-03-23T01:58:43;93165.72;;;-3.95
72405;BMP280;60395;52.020;113.548;2023-03-23T02:01:46;93158.28;;;-3.78
72405;BMP280;60395;52.020;113.548;2023-03-23T02:04:48;93163.69;;;-3.85
72405;BMP280;60395;52.020;113.548;2023-03-23T02:07:51;93162.94;;;-3.88
72405;BMP280;60395;52.020;113.548;2023-03-23T02:10:54;93169.97;;;-3.88
72405;BMP280;60395;52.020;113.548;2023-03-23T02:13:56;93164.81;;;-3.88
72405;BMP280;60395;52.020;113.548;2023-03-23T02:27:20;93179.25;;;-3.42
72405;BMP280;60395;52.020;113.548;2023-03-23T02:34:05;93177.91;;;-3.16
72405;BMP280;60395;52.020;113.548;2023-03-23T02:38:16;93182.84;;;-3.20
72405;BMP280;60395;52.020;113.548;2023-03-23T02:40:53;93188.81;;;-2.88
72405;BMP280;60395;52.020;113.548;2023-03-23T02:43:56;93194.69;;;-2.86
72405;BMP280;60395;52.020;113.548;2023-03-23T02:47:00;93193.56;;;-2.82
72405;BMP280;60395;52.020;113.548;2023-03-23T02:50:06;93185.56;;;-2.89
72405;BMP280;60395;52.020;113.548;2023-03-23T02:53:10;93193.09;;;-2.93
72405;BMP280;60395;52.020;113.548;2023-03-23T02:56:14;93194.78;;;-2.97
72405;BMP280;60395;52.020;113.548;2023-03-23T02:59:16;93193.75;;;-2.92
72405;BMP280;60395;52.020;113.548;2023-03-23T03:02:22;93192.22;;;-2.83
72405;BMP280;60395;52.020;113.548;2023-03-23T03:09:14;93201.72;;;-2.72
72405;BMP280;60395;52.020;113.548;2023-03-23T03:15:42;93211.72;;;-2.78
72405;BMP280;60395;52.020;113.548;2023-03-23T03:22:06;93210.19;;;-2.40
72405;BMP280;60395;52.020;113.548;2023-03-23T03:25:14;93215.84;;;-2.44
72405;BMP280;60395;52.020;113.548;2023-03-23T03:28:21;93208.16;;;-2.58
72405;BMP280;60395;52.020;113.548;2023-03-23T03:31:32;93206.44;;;-2.53
72405;BMP280;60395;52.020;113.548;2023-03-23T03:34:37;93212.09;;;-2.41
72405;BMP280;60395;52.020;113.548;2023-03-23T03:37:41;93215.09;;;-2.31
72405;BMP280;60395;52.020;113.548;2023-03-23T03:40:43;93213.75;;;-2.18
72405;BMP280;60395;52.020;113.548;2023-03-23T03:43:45;93211.28;;;-2.00
72405;BMP280;60395;52.020;113.548;2023-03-23T03:46:47;93207.78;;;-1.91
72405;BMP280;60395;52.020;113.548;2023-03-23T03:49:49;93212.56;;;-1.86
72405;BMP280;60395;52.020;113.548;2023-03-23T03:52:51;93217.66;;;-2.01
72405;BMP280;60395;52.020;113.548;2023-03-23T03:55:54;93222.81;;;-2.01
72405;BMP280;60395;52.020;113.548;2023-03-23T03:59:08;93217.81;;;-2.13
72405;BMP280;60395;52.020;113.548;2023-03-23T04:02:36;93215.41;;;-2.09
72405;BMP280;60395;52.020;113.548;2023-03-23T04:05:38;93225.91;;;-1.89
72405;BMP280;60395;52.020;113.548;2023-03-23T04:08:41;93224.94;;;-1.82
72405;BMP280;60395;52.020;113.548;2023-03-23T04:11:44;93221.69;;;-1.83
72405;BMP280;60395;52.020;113.548;2023-03-23T04:15:05;93219.47;;;-2.04
72405;BMP280;60395;52.020;113.548;2023-03-23T04:18:10;93222.78;;;-2.17
72405;BMP280;60395;52.020;113.548;2023-03-23T04:21:14;93218.06;;;-2.23
72405;BMP280;60395;52.020;113.548;2023-03-23T04:24:19;93225.53;;;-2.13
72405;BMP280;60395;52.020;113.548;2023-03-23T04:27:24;93232.84;;;-2.08
72405;BMP280;60395;52.020;113.548;2023-03-23T04:30:28;93226.22;;;-1.97
72405;BMP280;60395;52.020;113.548;2023-03-23T04:33:37;93228.75;;;-1.83
72405;BMP280;60395;52.020;113.548;2023-03-23T04:36:42;93229.56;;;-1.94
72405;BMP280;60395;52.020;113.548;2023-03-23T04:39:49;93228.91;;;-1.79
72405;BMP280;60395;52.020;113.548;2023-03-23T04:43:02;93234.22;;;-1.75
72405;BMP280;60395;52.020;113.548;2023-03-23T04:46:21;93222.19;;;-1.71
72405;BMP280;60395;52.020;113.548;2023-03-23T04:49:25;93228.50;;;-1.58
72405;BMP280;60395;52.020;113.548;2023-03-23T04:52:39;93224.25;;;-1.67
72405;BMP280;60395;52.020;113.548;2023-03-23T04:55:48;93229.66;;;-1.61
72405;BMP280;60395;52.020;113.548;2023-03-23T04:58:53;93223.19;;;-1.78
72405;BMP280;60395;52.020;113.548;2023-03-23T05:02:21;93227.03;;;-1.92
72405;BMP280;60395;52.020;113.548;2023-03-23T05:05:24;93224.72;;;-1.86
72405;BMP280;60395;52.020;113.548;2023-03-23T05:08:28;93223.75;;;-1.79
72405;BMP280;60395;52.020;113.548;2023-03-23T05:11:30;93220.94;;;-1.70
72405;BMP280;60395;52.020;113.548;2023-03-23T05:14:32;93221.53;;;-1.71
72405;BMP280;60395;52.020;113.548;2023-03-23T05:17:43;93218.88;;;-1.73
72405;BMP280;60395;52.020;113.548;2023-03-23T05:20:49;93209.31;;;-1.71
72405;BMP280;60395;52.020;113.548;2023-03-23T05:23:56;93213.38;;;-1.81
72405;BMP280;60395;52.020;113.548;2023-03-23T05:27:03;93228.66;;;-1.70
72405;BMP280;60395;52.020;113.548;2023-03-23T05:30:09;93226.00;;;-1.56
72405;BMP280;60395;52.020;113.548;2023-03-23T05:33:14;93221.78;;;-1.49
72405;BMP280;60395;52.020;113.548;2023-03-23T05:36:24;93215.72;;;-1.56
72405;BMP280;60395;52.020;113.548;2023-03-23T05:40:06;93204.38;;;-1.49
72405;BMP280;60395;52.020;113.548;2023-03-23T05:43:30;93225.22;;;-1.43
72405;BMP280;60395;52.020;113.548;2023-03-23T05:46:45;93208.28;;;-1.32
72405;BMP280;60395;52.020;113.548;2023-03-23T05:49:47;93204.78;;;-1.23
72405;BMP280;60395;52.020;113.548;2023-03-23T05:52:52;93205.28;;;-1.27
72405;BMP280;60395;52.020;113.548;2023-03-23T05:55:59;93204.28;;;-1.19
72405;BMP280;60395;52.020;113.548;2023-03-23T05:59:30;93197.34;;;-1.15
72405;BMP280;60395;52.020;113.548;2023-03-23T06:02:33;93197.69;;;-1.07
72405;BMP280;60395;52.020;113.548;2023-03-23T06:05:45;93196.25;;;-1.10
72405;BMP280;60395;52.020;113.548;2023-03-23T06:08:50;93189.50;;;-1.01
72405;BMP280;60395;52.020;113.548;2023-03-23T06:12:00;93188.78;;;-0.86
72405;BMP280;60395;52.020;113.548;2023-03-23T06:15:16;93185.47;;;-0.89
72405;BMP280;60395;52.020;113.548;2023-03-23T06:18:36;93195.78;;;-0.89
72405;BMP280;60395;52.020;113.548;2023-03-23T06:21:48;93194.16;;;-0.98
72405;BMP280;60395;52.020;113.548;2023-03-23T06:24:59;93184.22;;;-0.88
72405;BMP280;60395;52.020;113.548;2023-03-23T06:28:10;93182.66;;;-0.77
72405;BMP280;60395;52.020;113.548;2023-03-23T06:31:16;93194.69;;;-0.66
72405;BMP280;60395;52.020;113.548;2023-03-23T06:34:23;93202.38;;;-0.68
72405;BMP280;60395;52.020;113.548;2023-03-23T06:37:44;93189.97;;;-0.71
72405;BMP280;60395;52.020;113.548;2023-03-23T06:41:06;93193.66;;;-0.76
72405;BMP280;60395;52.020;113.548;2023-03-23T06:44:08;93188.13;;;-0.87
72405;BMP280;60395;52.020;113.548;2023-03-23T06:47:15;93188.00;;;-0.73
72405;BMP280;60395;52.020;113.548;2023-03-23T06:50:21;93191.66;;;-0.60
72405;BMP280;60395;52.020;113.548;2023-03-23T06:53:23;93194.25;;;-0.43
72405;BMP280;60395;52.020;113.548;2023-03-23T06:56:28;93200.50;;;-0.48
72405;BMP280;60395;52.020;113.548;2023-03-23T06:59:32;93205.41;;;-0.56
72405;BMP280;60395;52.020;113.548;2023-03-23T07:02:35;93206.66;;;-0.57
72405;BMP280;60395;52.020;113.548;2023-03-23T07:05:37;93203.75;;;-0.65
72405;BMP280;60395;52.020;113.548;2023-03-23T07:08:43;93199.78;;;-0.50
72405;BMP280;60395;52.020;113.548;2023-03-23T07:11:49;93198.00;;;-0.46
72405;BMP280;60395;52.020;113.548;2023-03-23T07:15:07;93190.41;;;-0.42
72405;BMP280;60395;52.020;113.548;2023-03-23T07:18:14;93200.16;;;-0.40
72405;BMP280;60395;52.020;113.548;2023-03-23T07:21:19;93198.75;;;-0.43
72405;BMP280;60395;52.020;113.548;2023-03-23T07:24:21;93208.25;;;-0.48
72405;BMP280;60395;52.020;113.548;2023-03-23T07:27:50;93208.91;;;-0.47
72405;BMP280;60395;52.020;113.548;2023-03-23T07:30:52;93215.03;;;-0.56
72405;BMP280;60395;52.020;113.548;2023-03-23T07:33:55;93214.66;;;-0.49
72405;BMP280;60395;52.020;113.548;2023-03-23T07:37:03;93230.16;;;-0.49
72405;BMP280;60395;52.020;113.548;2023-03-23T07:40:10;93216.22;;;-0.59
72405;BMP280;60395;52.020;113.548;2023-03-23T07:43:21;93216.81;;;-0.61
72405;BMP280;60395;52.020;113.548;2023-03-23T07:46:52;93224.91;;;-0.51
72405;BMP280;60395;52.020;113.548;2023-03-23T07:50:03;93218.28;;;-0.56
72405;BMP280;60395;52.020;113.548;2023-03-23T07:53:16;93225.19;;;-0.60
72405;BMP280;60395;52.020;113.548;2023-03-23T07:56:25;93226.75;;;-0.53
72405;BMP280;60395;52.020;113.548;2023-03-23T07:59:35;93225.22;;;-0.43
72405;BMP280;60395;52.020;113.548;2023-03-23T08:02:37;93227.19;;;-0.41
72405;BMP280;60395;52.020;113.548;2023-03-23T08:06:01;93227.94;;;-0.38
72405;BMP280;60395;52.020;113.548;2023-03-23T08:09:21;93231.56;;;-0.46
72405;BMP280;60395;52.020;113.548;2023-03-23T08:12:44;93231.84;;;-0.55
72405;BMP280;60395;52.020;113.548;2023-03-23T08:16:10;93234.13;;;-0.63
72405;BMP280;60395;52.020;113.548;2023-03-23T08:19:32;93224.91;;;-0.68
72405;BMP280;60395;52.020;113.548;2023-03-23T08:22:58;93217.75;;;-0.70
72405;BMP280;60395;52.020;113.548;2023-03-23T08:26:34;93230.78;;;-0.66
72405;BMP280;60395;52.020;113.548;2023-03-23T08:29:59;93228.66;;;-0.54
72405;BMP280;60395;52.020;113.548;2023-03-23T08:33:19;93234.34;;;-0.57
72405;BMP280;60395;52.020;113.548;2023-03-23T08:36:51;93243.78;;;-0.64
72405;BMP280;60395;52.020;113.548;2023-03-23T08:40:24;93243.31;;;-0.76
72405;BMP280;60395;52.020;113.548;2023-03-23T08:43:46;93234.09;;;-0.81
72405;BMP280;60395;52.020;113.548;2023-03-23T08:47:07;93245.09;;;-0.80
72405;BMP280;60395;52.020;113.548;2023-03-23T08:50:45;93230.16;;;-0.66
72405;BMP280;60395;52.020;113.548;2023-03-23T08:53:57;93241.56;;;-0.71
72405;BMP280;60395;52.020;113.548;2023-03-23T08:57:20;93245.69;;;-0.64
72405;BMP280;60395;52.020;113.548;2023-03-23T09:00:40;93239.28;;;-0.63
72405;BMP280;60395;52.020;113.548;2023-03-23T09:03:53;93242.53;;;-0.63
72405;BMP280;60395;52.020;113.548;2023-03-23T09:07:10;93247.53;;;-0.67
72405;BMP280;60395;52.020;113.548;2023-03-23T09:10:13;93234.41;;;-0.73
72405;BMP280;60395;52.020;113.548;2023-03-23T09:13:16;93241.53;;;-0.89
72405;BMP280;60395;52.020;113.548;2023-03-23T09:16:17;93247.19;;;-0.93
72405;BMP280;60395;52.020;113.548;2023-03-23T09:19:19;93244.81;;;-1.04
72405;BMP280;60395;52.020;113.548;2023-03-23T09:22:22;93257.63;;;-1.06
72405;BMP280;60395;52.020;113.548;2023-03-23T09:25:26;93247.22;;;-1.08
72405;BMP280;60395;52.020;113.548;2023-03-23T09:28:29;93253.41;;;-1.15
72405;BMP280;60395;52.020;113.548;2023-03-23T09:31:32;93254.25;;;-1.27
72405;BMP280;60395;52.020;113.548;2023-03-23T09:34:35;93257.56;;;-1.40
72405;BMP280;60395;52.020;113.548;2023-03-23T09:37:43;93247.34;;;-1.38
72405;BMP280;60395;52.020;113.548;2023-03-23T09:44:28;93262.06;;;-1.40
72405;BMP280;60395;52.020;113.548;2023-03-23T09:50:48;93264.22;;;-1.50
72405;BMP280;60395;52.020;113.548;2023-03-23T09:53:57;93269.13;;;-1.56
72405;BMP280;60395;52.020;113.548;2023-03-23T09:57:00;93256.25;;;-1.56
72405;BMP280;60395;52.020;113.548;2023-03-23T10:03:26;93266.19;;;-1.80
72405;BMP280;60395;52.020;113.548;2023-03-23T10:06:29;93275.66;;;-1.85
72405;BMP280;60395;52.020;113.548;2023-03-23T10:09:31;93275.22;;;-1.95
72405;BMP280;60395;52.020;113.548;2023-03-23T10:12:42;93280.00;;;-2.03
72405;BMP280;60395;52.020;113.548;2023-03-23T10:15:46;93280.75;;;-2.16
72405;BMP280;60395;52.020;113.548;2023-03-23T10:19:41;93285.06;;;-2.21
72405;BMP280;60395;52.020;113.548;2023-03-23T10:30:35;93301.50;;;-2.55
72405;BMP280;60395;52.020;113.548;2023-03-23T10:33:33;93293.69;;;-2.71
72405;BMP280;60395;52.020;113.548;2023-03-23T10:36:48;93305.97;;;-2.83
72405;BMP280;60395;52.020;113.548;2023-03-23T10:39:58;93307.78;;;-2.99
72405;BMP280;60395;52.020;113.548;2023-03-23T10:43:05;93307.00;;;-3.15
72405;BMP280;60395;52.020;113.548;2023-03-23T10:49:49;93318.91;;;-3.47
72405;BMP280;60395;52.020;113.548;2023-03-23T10:53:00;93324.13;;;-3.59
72405;BMP280;60395;52.020;113.548;2023-03-23T10:56:04;93319.09;;;-3.82
72405;BMP280;60395;52.020;113.548;2023-03-23T10:59:31;93313.81;;;-4.10
72405;BMP280;60395;52.020;113.548;2023-03-23T11:02:39;93320.44;;;-4.30
72405;BMP280;60395;52.020;113.548;2023-03-23T11:05:49;93319.94;;;-4.52
72405;BMP280;60395;52.020;113.548;2023-03-23T11:09:02;93326.38;;;-4.74
72405;BMP280;60395;52.020;113.548;2023-03-23T11:12:16;93323.16;;;-4.98
72405;BMP280;60395;52.020;113.548;2023-03-23T11:15:29;93327.59;;;-5.10
72405;BMP280;60395;52.020;113.548;2023-03-23T11:18:41;93338.50;;;-5.21
72405;BMP280;60395;52.020;113.548;2023-03-23T11:21:52;93333.84;;;-5.25
72405;BMP280;60395;52.020;113.548;2023-03-23T11:25:04;93337.72;;;-5.35
72405;BMP280;60395;52.020;113.548;2023-03-23T11:28:14;93339.66;;;-5.45
72405;BMP280;60395;52.020;113.548;2023-03-23T11:31:17;93346.22;;;-5.54
72405;BMP280;60395;52.020;113.548;2023-03-23T11:34:31;93352.19;;;-5.61
72405;BMP280;60395;52.020;113.548;2023-03-23T11:37:42;93358.16;;;-5.68
72405;BMP280;60395;52.020;113.548;2023-03-23T11:40:51;93358.91;;;-5.77
72405;BMP280;60395;52.020;113.548;2023-03-23T11:44:03;93356.88;;;-5.79
72405;BMP280;60395;52.020;113.548;2023-03-23T11:50:48;93372.75;;;-5.92
72405;BMP280;60395;52.020;113.548;2023-03-23T11:57:42;93373.75;;;-6.07
72405;BMP280;60395;52.020;113.548;2023-03-23T12:01:02;93372.47;;;-6.17
72405;BMP280;60395;52.020;113.548;2023-03-23T12:04:20;93380.56;;;-6.21
72405;BMP280;60395;52.020;113.548;2023-03-23T12:14:48;93390.44;;;-6.27
72405;BMP280;60395;52.020;113.548;2023-03-23T12:44:13;93412.63;;;-6.70
72405;BMP280;60395;52.020;113.548;2023-03-23T12:47:44;93411.16;;;-6.73
72405;BMP280;60395;52.020;113.548;2023-03-23T12:51:28;93415.91;;;-6.79
72405;BMP280;60395;52.020;113.548;2023-03-23T12:55:05;93412.38;;;-6.84
72405;BMP280;60395;52.020;113.548;2023-03-23T12:58:09;93414.00;;;-6.88
72405;BMP280;60395;52.020;113.548;2023-03-23T13:04:30;93417.41;;;-7.05
72405;BMP280;60395;52.020;113.548;2023-03-23T13:07:37;93424.13;;;-7.10
72405;BMP280;60395;52.020;113.548;2023-03-23T13:10:49;93424.81;;;-7.19
72405;BMP280;60395;52.020;113.548;2023-03-23T13:13:55;93427.75;;;-7.22
72405;BMP280;60395;52.020;113.548;2023-03-23T13:23:49;93437.97;;;-7.13
72405;BMP280;60395;52.020;113.548;2023-03-23T13:26:53;93434.06;;;-7.14
72405;BMP280;60395;52.020;113.548;2023-03-23T13:29:59;93441.19;;;-7.12
72405;BMP280;60395;52.020;113.548;2023-03-23T13:33:06;93437.56;;;-7.09
72405;BMP280;60395;52.020;113.548;2023-03-23T13:36:28;93439.16;;;-7.04
72405;BMP280;60395;52.020;113.548;2023-03-23T13:39:35;93435.91;;;-6.95
72405;BMP280;60395;52.020;113.548;2023-03-23T13:42:48;93439.84;;;-6.94
72405;BMP280;60395;52.020;113.548;2023-03-23T13:45:52;93440.66;;;-6.91
72405;BMP280;60395;52.020;113.548;2023-03-23T13:58:30;93457.03;;;-7.23
72405;BMP280;60395;52.020;113.548;2023-03-23T14:01:36;93454.06;;;-7.39
72405;BMP280;60395;52.020;113.548;2023-03-23T14:04:38;93463.75;;;-7.47
72405;BMP280;60395;52.020;113.548;2023-03-23T14:08:11;93460.22;;;-7.61
72405;BMP280;60395;52.020;113.548;2023-03-23T14:11:25;93456.44;;;-7.70
72405;BMP280;60395;52.020;113.548;2023-03-23T14:14:54;93461.81;;;-7.75
72405;BMP280;60395;52.020;113.548;2023-03-23T14:18:03;93458.72;;;-7.84
72405;BMP280;60395;52.020;113.548;2023-03-23T14:21:12;93460.16;;;-7.90
72405;BMP280;60395;52.020;113.548;2023-03-23T14:24:27;93454.22;;;-8.02
72405;BMP280;60395;52.020;113.548;2023-03-23T14:27:29;93460.56;;;-8.30
72405;BMP280;60395;52.020;113.548;2023-03-23T14:30:36;93468.75;;;-8.49
72405;BMP280;60395;52.020;113.548;2023-03-23T14:33:38;93453.31;;;-8.51
72405;BMP280;60395;52.020;113.548;2023-03-23T14:36:43;93453.63;;;-8.47
72405;BMP280;60395;52.020;113.548;2023-03-23T14:39:50;93462.25;;;-8.33
72405;BMP280;60395;52.020;113.548;2023-03-23T14:42:53;93456.59;;;-8.14
72405;BMP280;60395;52.020;113.548;2023-03-23T14:45:58;93458.09;;;-8.01
72405;BMP280;60395;52.020;113.548;2023-03-23T14:49:05;93455.59;;;-7.92
72405;BMP280;60395;52.020;113.548;2023-03-23T14:52:17;93459.50;;;-7.81
72405;BMP280;60395;52.020;113.548;2023-03-23T14:55:21;93461.78;;;-7.85
72405;BMP280;60395;52.020;113.548;2023-03-23T14:58:23;93465.09;;;-7.92
72405;BMP280;60395;52.020;113.548;2023-03-23T15:01:30;93471.38;;;-8.03
72405;BMP280;60395;52.020;113.548;2023-03-23T15:04:32;93467.03;;;-8.10
72405;BMP280;60395;52.020;113.548;2023-03-23T15:07:35;93469.28;;;-8.24
72405;BMP280;60395;52.020;113.548;2023-03-23T15:10:38;93483.31;;;-8.32
72405;BMP280;60395;52.020;113.548;2023-03-23T15:13:45;93482.47;;;-8.44
72405;BMP280;60395;52.020;113.548;2023-03-23T15:16:50;93483.47;;;-8.57
72405;BMP280;60395;52.020;113.548;2023-03-23T15:19:54;93478.16;;;-8.69
72405;BMP280;60395;52.020;113.548;2023-03-23T15:23:04;93480.88;;;-8.84
72405;BMP280;60395;52.020;113.548;2023-03-23T15:26:26;93486.34;;;-9.05
72405;BMP280;60395;52.020;113.548;2023-03-23T15:29:29;93492.22;;;-9.37
72405;BMP280;60395;52.020;113.548;2023-03-23T15:32:38;93488.66;;;-9.58
72405;BMP280;60395;52.020;113.548;2023-03-23T15:35:48;93495.22;;;-9.73
72405;BMP280;60395;52.020;113.548;2023-03-23T15:38:50;93487.13;;;-9.79
72405;BMP280;60395;52.020;113.548;2023-03-23T15:41:53;93490.16;;;-9.73
72405;BMP280;60395;52.020;113.548;2023-03-23T15:48:11;93493.13;;;-9.67
72405;BMP280;60395;52.020;113.548;2023-03-23T15:51:14;93493.38;;;-9.72
72405;BMP280;60395;52.020;113.548;2023-03-23T15:54:16;93490.94;;;-9.95
72405;BMP280;60395;52.020;113.548;2023-03-23T15:57:18;93493.94;;;-10.14
72405;BMP280;60395;52.020;113.548;2023-03-23T16:00:21;93490.50;;;-10.09
72405;BMP280;60395;52.020;113.548;2023-03-23T16:03:48;93498.59;;;-10.03
72405;BMP280;60395;52.020;113.548;2023-03-23T16:06:55;93492.03;;;-10.06
72405;BMP280;60395;52.020;113.548;2023-03-23T16:09:58;93499.00;;;-10.14
72405;BMP280;60395;52.020;113.548;2023-03-23T16:13:02;93497.19;;;-10.21
72405;BMP280;60395;52.020;113.548;2023-03-23T16:16:26;93507.03;;;-10.25
72405;BMP280;60395;52.020;113.548;2023-03-23T16:19:30;93512.97;;;-10.30
72405;BMP280;60395;52.020;113.548;2023-03-23T16:22:33;93513.50;;;-10.31
72405;BMP280;60395;52.020;113.548;2023-03-23T16:25:36;93500.56;;;-10.26
72405;BMP280;60395;52.020;113.548;2023-03-23T16:28:43;93508.72;;;-10.27
72405;BMP280;60395;52.020;113.548;2023-03-23T16:31:46;93509.81;;;-10.46
72405;BMP280;60395;52.020;113.548;2023-03-23T16:34:50;93504.63;;;-10.55
72405;BMP280;60395;52.020;113.548;2023-03-23T16:37:55;93510.00;;;-10.59
72405;BMP280;60395;52.020;113.548;2023-03-23T16:41:09;93515.09;;;-10.59
72405;BMP280;60395;52.020;113.548;2023-03-23T16:44:12;93513.94;;;-10.58
72405;BMP280;60395;52.020;113.548;2023-03-23T16:47:16;93513.22;;;-10.51
72405;BMP280;60395;52.020;113.548;2023-03-23T16:50:20;93522.69;;;-10.44
72405;BMP280;60395;52.020;113.548;2023-03-23T16:53:24;93521.31;;;-10.45
72405;BMP280;60395;52.020;113.548;2023-03-23T16:56:27;93521.38;;;-10.60
72405;BMP280;60395;52.020;113.548;2023-03-23T16:59:30;93523.09;;;-10.70
72405;BMP280;60395;52.020;113.548;2023-03-23T17:02:35;93524.13;;;-10.73
72405;BMP280;60395;52.020;113.548;2023-03-23T17:05:38;93524.13;;;-10.73
72405;BMP280;60395;52.020;113.548;2023-03-23T17:08:42;93525.50;;;-10.80
72405;BMP280;60395;52.020;113.548;2023-03-23T17:11:45;93524.31;;;-10.86
72405;BMP280;60395;52.020;113.548;2023-03-23T17:14:48;93529.56;;;-10.84
72405;BMP280;60395;52.020;113.548;2023-03-23T17:17:52;93532.09;;;-10.84
72405;BMP280;60395;52.020;113.548;2023-03-23T17:20:56;93527.84;;;-10.82
72405;BMP280;60395;52.020;113.548;2023-03-23T17:23:59;93542.56;;;-10.80
72405;BMP280;60395;52.020;113.548;2023-03-23T17:27:02;93539.53;;;-10.86
72405;BMP280;60395;52.020;113.548;2023-03-23T17:30:07;93536.34;;;-10.94
72405;BMP280;60395;52.020;113.548;2023-03-23T17:33:12;93536.72;;;-11.06
72405;BMP280;60395;52.020;113.548;2023-03-23T17:36:15;93540.75;;;-11.18
72405;BMP280;60395;52.020;113.548;2023-03-23T17:39:19;93532.31;;;-11.20
72405;BMP280;60395;52.020;113.548;2023-03-23T17:42:22;93538.38;;;-11.16
72405;BMP280;60395;52.020;113.548;2023-03-23T17:45:26;93538.56;;;-11.14
72405;BMP280;60395;52.020;113.548;2023-03-23T17:48:29;93538.22;;;-11.18
72405;BMP280;60395;52.020;113.548;2023-03-23T17:51:32;93538.59;;;-11.21
72405;BMP280;60395;52.020;113.548;2023-03-23T17:54:35;93538.06;;;-11.27
72405;BMP280;60395;52.020;113.548;2023-03-23T17:57:39;93542.13;;;-11.32
72405;BMP280;60395;52.020;113.548;2023-03-23T18:00:45;93544.63;;;-11.40
72405;BMP280;60395;52.020;113.548;2023-03-23T18:03:48;93538.22;;;-11.48
72405;BMP280;60395;52.020;113.548;2023-03-23T18:06:56;93533.81;;;-11.48
72405;BMP280;60395;52.020;113.548;2023-03-23T18:10:00;93542.09;;;-11.47
72405;BMP280;60395;52.020;113.548;2023-03-23T18:13:04;93538.88;;;-11.48
72405;BMP280;60395;52.020;113.548;2023-03-23T18:16:08;93532.63;;;-11.54
72405;BMP280;60395;52.020;113.548;2023-03-23T18:19:12;93531.28;;;-11.55
72405;BMP280;60395;52.020;113.548;2023-03-23T18:22:15;93539.91;;;-11.58
72405;BMP280;60395;52.020;113.548;2023-03-23T18:25:18;93535.66;;;-11.63
72405;BMP280;60395;52.020;113.548;2023-03-23T18:28:22;93534.16;;;-11.66
72405;BMP280;60395;52.020;113.548;2023-03-23T18:31:27;93537.81;;;-11.75
72405;BMP280;60395;52.020;113.548;2023-03-23T18:34:30;93528.69;;;-11.86
72405;BMP280;60395;52.020;113.548;2023-03-23T18:37:34;93535.25;;;-11.90
72405;BMP280;60395;52.020;113.548;2023-03-23T18:40:44;93526.66;;;-11.95
72405;BMP280;60395;52.020;113.548;2023-03-23T18:43:48;93528.50;;;-12.03
72405;BMP280;60395;52.020;113.548;2023-03-23T18:46:51;93534.56;;;-12.06
72405;BMP280;60395;52.020;113.548;2023-03-23T18:49:54;93532.03;;;-12.06
72405;BMP280;60395;52.020;113.548;2023-03-23T18:52:58;93529.84;;;-12.10
72405;BMP280;60395;52.020;113.548;2023-03-23T18:56:13;93528.28;;;-12.13
72405;BMP280;60395;52.020;113.548;2023-03-23T18:59:17;93539.72;;;-12.19
72405;BMP280;60395;52.020;113.548;2023-03-23T19:02:20;93530.78;;;-12.28
72405;BMP280;60395;52.020;113.548;2023-03-23T19:05:24;93532.59;;;-12.36
72405;BMP280;60395;52.020;113.548;2023-03-23T19:08:28;93529.00;;;-12.48
72405;BMP280;60395;52.020;113.548;2023-03-23T19:11:31;93539.56;;;-12.65
72405;BMP280;60395;52.020;113.548;2023-03-23T19:14:35;93536.75;;;-12.82
72405;BMP280;60395;52.020;113.548;2023-03-23T19:17:39;93527.97;;;-13.10
72405;BMP280;60395;52.020;113.548;2023-03-23T19:20:43;93532.56;;;-13.29